Pinebluff, North Carolina
Current Conditions -  °F | °C
As of 9:56 AM on Sunday 23 Nov 2014 (Local Time) from KHFF Reporting Station
Light Rain Light Rain  
Wind Chill: 42°   Ceiling: 3800
Heat Index: 44°   Visibility: 9mi
Dew Point: 43°   Wind: 5mph
Humidity: 96%   Direction: 30°NNE
Pressure: 30.23"   Gusts: NA
Location:  35.11°N, 79.47°W
Report Text: KHFF 231456Z AUTO 03004KT 9SM -RA BKN038 BKN075 07/06 A3023 RMK AO2 SLP242 P0002 60001 T00690063 57011
Loading
Personal Weather Stations






























Interactive Weather Map New forecast layout! Learn more

10-Day Weather Forecast

Advertisements
Track Severe Weather on mobile